»·PEaware :: AAL861 KSBA-KPSP

AAL861 :: KSBA-KPSP

FLIGHT INFORMATION

Flight Status: Arrived
Operator:
American Airlines
More flights by this operator :: More flights under this callsign
Pilot: Anonymous 18910 (18910)
Aircraft: AIRBUS A319
(A319)
More flights by this aircraft type
Origin: KSBA Santa Barbara Mun
United States
Destination: KPSP Palm Springs Intl
United States
More flights between these airports :: More routes between these airports
Route: +HENER SIZLR SIZLR3
File this flight plan on PilotEdge
Remarks:
Altitude:
(Current/Filed)
21,000ft
Speed:
(Current/Filed)
400kts
Departed: 27-Apr-19 10:00 AM
Arrived: 27-Apr-19 10:46 AM
Distance/Time
Traveled:
169nm/0:46
Distance/Time
To Go:
Arrived

Flight Plot

Page will automatically refresh every two minutes.


Map Options




Map Legend


Flown Route
Filed Route
Departure Airport
Arrival Airport
Navaid (VOR, NDB)
Fix

Horizontal Profiles

Position Reports

Time Latitude Longitude Heading Altitude Ground
Speed
27-Apr-19 09:40 34.425357 -119.837194 148 19ft 0kts
27-Apr-19 09:41 34.425357 -119.837194 148 19ft 0kts
27-Apr-19 09:42 34.425357 -119.837194 148 19ft 0kts
27-Apr-19 09:43 34.425357 -119.837194 148 19ft 0kts
27-Apr-19 09:44 34.425357 -119.837194 148 19ft 0kts
27-Apr-19 09:45 34.425357 -119.837194 148 19ft 0kts
27-Apr-19 09:46 34.425357 -119.837194 148 19ft 0kts
27-Apr-19 09:47 34.425357 -119.837194 148 19ft 0kts
27-Apr-19 09:48 34.425357 -119.837194 148 19ft 0kts
27-Apr-19 09:49 34.425357 -119.837194 148 19ft 0kts
27-Apr-19 09:50 34.425357 -119.837194 148 19ft 0kts
27-Apr-19 09:50 34.425357 -119.837194 148 19ft 0kts
27-Apr-19 09:52 34.425389 -119.837218 149 19ft 2kts
27-Apr-19 09:53 34.425594 -119.837750 57 19ft 2kts
27-Apr-19 09:53 34.425246 -119.837901 343 19ft 1kts
27-Apr-19 09:54 34.425230 -119.837896 344 19ft 0kts
27-Apr-19 09:55 34.425230 -119.837896 344 19ft 0kts
27-Apr-19 09:57 34.426750 -119.836200 88 19ft 13kts
27-Apr-19 09:57 34.427102 -119.834646 353 19ft 0kts
27-Apr-19 09:58 34.427907 -119.835718 267 19ft 21kts
27-Apr-19 09:59 34.427093 -119.875508 267 1338ft 147kts
27-Apr-19 10:00 34.425997 -119.932451 268 2902ft 227kts
27-Apr-19 10:01 34.401716 -120.005504 199 4760ft 262kts
27-Apr-19 10:02 34.332620 -119.977231 152 7889ft 282kts
27-Apr-19 10:03 34.269397 -119.933932 152 7978ft 282kts
27-Apr-19 10:04 34.201424 -119.886742 144 7982ft 286kts
27-Apr-19 10:05 34.200646 -119.792572 72 10821ft 320kts
27-Apr-19 10:06 34.227534 -119.675757 73 12061ft 400kts
27-Apr-19 10:07 34.257647 -119.539317 74 14480ft 430kts
27-Apr-19 10:08 34.289210 -119.394937 74 16896ft 450kts
27-Apr-19 10:09 34.321110 -119.247676 75 19003ft 466kts
27-Apr-19 10:10 34.354777 -119.091373 75 20870ft 482kts
27-Apr-19 10:11 34.388853 -118.931991 74 20979ft 486kts
27-Apr-19 10:12 34.422898 -118.771915 74 21075ft 485kts
27-Apr-19 10:13 34.456672 -118.612340 74 21087ft 482kts
27-Apr-19 10:14 34.489921 -118.453959 74 21079ft 483kts
27-Apr-19 10:15 34.522662 -118.296789 74 21033ft 486kts
27-Apr-19 10:16 34.555713 -118.136972 74 21004ft 491kts
27-Apr-19 10:17 34.559573 -117.974575 114 20998ft 493kts
27-Apr-19 10:18 34.497743 -117.825978 117 20987ft 492kts
27-Apr-19 10:19 34.436667 -117.677503 117 20977ft 492kts
27-Apr-19 10:20 34.375828 -117.528672 117 20978ft 492kts
27-Apr-19 10:21 34.315764 -117.382250 116 19059ft 476kts
27-Apr-19 10:22 34.254407 -117.244764 120 16307ft 448kts
27-Apr-19 10:23 34.192769 -117.113778 120 16141ft 447kts
27-Apr-19 10:24 34.133518 -116.987796 120 15917ft 399kts
27-Apr-19 10:25 34.083293 -116.880684 120 15644ft 339kts
27-Apr-19 10:26 34.041608 -116.791191 118 14572ft 277kts
27-Apr-19 10:27 34.015678 -116.707820 108 12632ft 260kts
27-Apr-19 10:28 33.993983 -116.626464 107 11002ft 253kts
27-Apr-19 10:29 33.969595 -116.545944 124 10972ft 255kts
27-Apr-19 10:30 33.919184 -116.485659 136 10075ft 255kts
27-Apr-19 10:31 33.873754 -116.421927 127 8928ft 251kts
27-Apr-19 10:32 33.831790 -116.355076 127 7660ft 247kts
27-Apr-19 10:33 33.791854 -116.290773 127 6238ft 235kts
27-Apr-19 10:34 33.754764 -116.230569 127 4959ft 205kts
27-Apr-19 10:35 33.717499 -116.182286 173 4921ft 198kts
27-Apr-19 10:36 33.701556 -116.225582 310 4955ft 191kts
27-Apr-19 10:37 33.743465 -116.257535 22 4926ft 197kts
27-Apr-19 10:38 33.737556 -116.208345 175 4934ft 199kts
27-Apr-19 10:39 33.720119 -116.254254 291 4944ft 191kts
27-Apr-19 10:40 33.733904 -116.315815 277 4697ft 192kts
27-Apr-19 10:41 33.738001 -116.379614 283 3356ft 183kts
27-Apr-19 10:42 33.754795 -116.429358 301 2509ft 147kts
27-Apr-19 10:43 33.781378 -116.464830 325 1514ft 141kts
27-Apr-19 10:44 33.812796 -116.492701 323 690ft 139kts
27-Apr-19 10:45 33.833195 -116.511477 251 448ft 18kts

Navigation Log

Ident Type
Flight plan parsing failed, navigation log unavailable